sensor_id;sensor_type;location;lat;lon;timestamp;temperature;humidity
12166;DHT22;6146;48.128;11.476;2024-01-06T00:00:47;6.40;99.90
12166;DHT22;6146;48.128;11.476;2024-01-06T00:03:14;6.40;99.90
12166;DHT22;6146;48.128;11.476;2024-01-06T00:05:40;6.40;99.90
12166;DHT22;6146;48.128;11.476;2024-01-06T00:08:05;6.40;99.90
12166;DHT22;6146;48.128;11.476;2024-01-06T00:10:31;6.50;99.90
12166;DHT22;6146;48.128;11.476;2024-01-06T00:12:57;6.50;99.90
12166;DHT22;6146;48.128;11.476;2024-01-06T00:15:23;6.50;99.90
12166;DHT22;6146;48.128;11.476;2024-01-06T00:17:49;6.50;99.90
12166;DHT22;6146;48.128;11.476;2024-01-06T00:20:14;6.50;99.90
12166;DHT22;6146;48.128;11.476;2024-01-06T00:22:40;6.50;99.90
12166;DHT22;6146;48.128;11.476;2024-01-06T00:25:08;6.50;99.90
12166;DHT22;6146;48.128;11.476;2024-01-06T00:27:33;6.50;99.90
12166;DHT22;6146;48.128;11.476;2024-01-06T00:29:59;6.50;99.90
12166;DHT22;6146;48.128;11.476;2024-01-06T00:32:24;6.50;99.90
12166;DHT22;6146;48.128;11.476;2024-01-06T00:34:50;6.50;99.90
12166;DHT22;6146;48.128;11.476;2024-01-06T00:37:15;6.40;99.90
12166;DHT22;6146;48.128;11.476;2024-01-06T00:39:41;6.40;99.90
12166;DHT22;6146;48.128;11.476;2024-01-06T00:42:06;6.40;99.90
12166;DHT22;6146;48.128;11.476;2024-01-06T00:44:35;6.40;99.90
12166;DHT22;6146;48.128;11.476;2024-01-06T00:47:00;6.40;99.90
12166;DHT22;6146;48.128;11.476;2024-01-06T00:49:26;6.40;99.90
12166;DHT22;6146;48.128;11.476;2024-01-06T00:51:52;6.40;99.90
12166;DHT22;6146;48.128;11.476;2024-01-06T00:54:17;6.40;99.90
12166;DHT22;6146;48.128;11.476;2024-01-06T00:56:43;6.40;99.90
12166;DHT22;6146;48.128;11.476;2024-01-06T00:59:09;6.40;99.90
12166;DHT22;6146;48.128;11.476;2024-01-06T01:01:34;6.40;99.90
12166;DHT22;6146;48.128;11.476;2024-01-06T01:04:00;6.30;99.90
12166;DHT22;6146;48.128;11.476;2024-01-06T01:06:25;6.30;99.90
12166;DHT22;6146;48.128;11.476;2024-01-06T01:08:51;6.40;99.90
12166;DHT22;6146;48.128;11.476;2024-01-06T01:11:16;6.40;99.90
12166;DHT22;6146;48.128;11.476;2024-01-06T01:13:42;6.30;99.90
12166;DHT22;6146;48.128;11.476;2024-01-06T01:16:07;6.30;99.90
12166;DHT22;6146;48.128;11.476;2024-01-06T01:18:33;6.30;99.90
12166;DHT22;6146;48.128;11.476;2024-01-06T01:20:58;6.30;99.90
12166;DHT22;6146;48.128;11.476;2024-01-06T01:23:24;6.40;99.90
12166;DHT22;6146;48.128;11.476;2024-01-06T01:25:50;6.30;99.90
12166;DHT22;6146;48.128;11.476;2024-01-06T01:28:15;6.40;99.90
12166;DHT22;6146;48.128;11.476;2024-01-06T01:30:41;6.30;99.90
12166;DHT22;6146;48.128;11.476;2024-01-06T01:33:06;6.30;99.90
12166;DHT22;6146;48.128;11.476;2024-01-06T01:35:32;6.30;99.90
12166;DHT22;6146;48.128;11.476;2024-01-06T01:37:57;6.20;99.90
12166;DHT22;6146;48.128;11.476;2024-01-06T01:40:23;6.20;99.90
12166;DHT22;6146;48.128;11.476;2024-01-06T01:42:48;6.20;99.90
12166;DHT22;6146;48.128;11.476;2024-01-06T01:45:14;6.00;99.90
12166;DHT22;6146;48.128;11.476;2024-01-06T01:47:39;6.00;99.90
12166;DHT22;6146;48.128;11.476;2024-01-06T01:50:06;6.00;99.90
12166;DHT22;6146;48.128;11.476;2024-01-06T01:52:32;6.00;99.90
12166;DHT22;6146;48.128;11.476;2024-01-06T01:54:59;6.00;99.90
12166;DHT22;6146;48.128;11.476;2024-01-06T01:57:25;6.00;99.90
12166;DHT22;6146;48.128;11.476;2024-01-06T01:59:52;6.00;99.90
12166;DHT22;6146;48.128;11.476;2024-01-06T02:02:18;6.00;99.90
12166;DHT22;6146;48.128;11.476;2024-01-06T02:04:45;6.00;99.90
12166;DHT22;6146;48.128;11.476;2024-01-06T02:07:10;6.10;99.90
12166;DHT22;6146;48.128;11.476;2024-01-06T02:09:36;6.10;99.90
12166;DHT22;6146;48.128;11.476;2024-01-06T02:12:02;6.10;99.90
12166;DHT22;6146;48.128;11.476;2024-01-06T02:14:28;6.10;99.90
12166;DHT22;6146;48.128;11.476;2024-01-06T02:16:53;6.10;99.90
12166;DHT22;6146;48.128;11.476;2024-01-06T02:19:19;6.10;99.90
12166;DHT22;6146;48.128;11.476;2024-01-06T02:21:54;6.10;99.90
12166;DHT22;6146;48.128;11.476;2024-01-06T02:24:20;6.20;99.90
12166;DHT22;6146;48.128;11.476;2024-01-06T02:26:46;6.20;99.90
12166;DHT22;6146;48.128;11.476;2024-01-06T02:29:12;6.20;99.90
12166;DHT22;6146;48.128;11.476;2024-01-06T02:31:37;6.20;99.90
12166;DHT22;6146;48.128;11.476;2024-01-06T02:34:03;6.10;99.90
12166;DHT22;6146;48.128;11.476;2024-01-06T02:36:28;6.20;99.90
12166;DHT22;6146;48.128;11.476;2024-01-06T02:38:54;6.20;99.90
12166;DHT22;6146;48.128;11.476;2024-01-06T02:41:19;6.20;99.90
12166;DHT22;6146;48.128;11.476;2024-01-06T02:43:45;6.20;99.90
12166;DHT22;6146;48.128;11.476;2024-01-06T02:46:10;6.20;99.90
12166;DHT22;6146;48.128;11.476;2024-01-06T02:48:36;6.10;99.90
12166;DHT22;6146;48.128;11.476;2024-01-06T02:51:01;6.10;99.90
12166;DHT22;6146;48.128;11.476;2024-01-06T02:53:27;6.30;99.90
12166;DHT22;6146;48.128;11.476;2024-01-06T02:55:52;6.00;99.90
12166;DHT22;6146;48.128;11.476;2024-01-06T02:58:18;6.00;99.90
12166;DHT22;6146;48.128;11.476;2024-01-06T03:00:43;6.00;99.90
12166;DHT22;6146;48.128;11.476;2024-01-06T03:03:09;6.00;99.90
12166;DHT22;6146;48.128;11.476;2024-01-06T03:05:35;6.00;99.90
12166;DHT22;6146;48.128;11.476;2024-01-06T03:08:02;6.00;99.90
12166;DHT22;6146;48.128;11.476;2024-01-06T03:10:28;6.00;99.90
12166;DHT22;6146;48.128;11.476;2024-01-06T03:12:53;6.00;99.90
12166;DHT22;6146;48.128;11.476;2024-01-06T03:15:19;5.90;99.90
12166;DHT22;6146;48.128;11.476;2024-01-06T03:17:44;5.90;99.90
12166;DHT22;6146;48.128;11.476;2024-01-06T03:20:10;5.90;99.90
12166;DHT22;6146;48.128;11.476;2024-01-06T03:22:35;5.90;99.90
12166;DHT22;6146;48.128;11.476;2024-01-06T03:25:02;5.90;99.90
12166;DHT22;6146;48.128;11.476;2024-01-06T03:27:28;5.90;99.90
12166;DHT22;6146;48.128;11.476;2024-01-06T03:29:53;5.80;99.90
12166;DHT22;6146;48.128;11.476;2024-01-06T03:32:19;5.90;99.90
12166;DHT22;6146;48.128;11.476;2024-01-06T03:34:44;5.90;99.90
12166;DHT22;6146;48.128;11.476;2024-01-06T03:37:10;5.90;99.90
12166;DHT22;6146;48.128;11.476;2024-01-06T03:39:35;5.80;99.90
12166;DHT22;6146;48.128;11.476;2024-01-06T03:42:01;5.80;99.90
12166;DHT22;6146;48.128;11.476;2024-01-06T03:44:28;5.90;99.90
12166;DHT22;6146;48.128;11.476;2024-01-06T03:46:56;5.80;99.90
12166;DHT22;6146;48.128;11.476;2024-01-06T03:49:23;5.80;99.90
12166;DHT22;6146;48.128;11.476;2024-01-06T03:51:49;5.80;99.90
12166;DHT22;6146;48.128;11.476;2024-01-06T03:54:14;5.80;99.90
12166;DHT22;6146;48.128;11.476;2024-01-06T03:56:40;5.80;99.90
12166;DHT22;6146;48.128;11.476;2024-01-06T03:59:05;5.90;99.90
12166;DHT22;6146;48.128;11.476;2024-01-06T04:01:31;5.90;99.90
12166;DHT22;6146;48.128;11.476;2024-01-06T04:04:00;5.80;99.90
12166;DHT22;6146;48.128;11.476;2024-01-06T04:06:26;5.80;99.90
12166;DHT22;6146;48.128;11.476;2024-01-06T04:08:52;5.80;99.90
12166;DHT22;6146;48.128;11.476;2024-01-06T04:11:20;5.70;99.90
12166;DHT22;6146;48.128;11.476;2024-01-06T04:13:46;5.60;99.90
12166;DHT22;6146;48.128;11.476;2024-01-06T04:16:11;5.60;99.90
12166;DHT22;6146;48.128;11.476;2024-01-06T04:18:37;5.50;99.90
12166;DHT22;6146;48.128;11.476;2024-01-06T04:21:03;5.50;99.90
12166;DHT22;6146;48.128;11.476;2024-01-06T04:23:29;5.50;99.90
12166;DHT22;6146;48.128;11.476;2024-01-06T04:25:54;5.50;99.90
12166;DHT22;6146;48.128;11.476;2024-01-06T04:28:20;5.50;99.90
12166;DHT22;6146;48.128;11.476;2024-01-06T04:30:46;5.40;99.90
12166;DHT22;6146;48.128;11.476;2024-01-06T04:33:11;5.40;99.90
12166;DHT22;6146;48.128;11.476;2024-01-06T04:35:37;5.40;99.90
12166;DHT22;6146;48.128;11.476;2024-01-06T04:38:02;5.40;99.90
12166;DHT22;6146;48.128;11.476;2024-01-06T04:40:28;5.40;99.90
12166;DHT22;6146;48.128;11.476;2024-01-06T04:42:53;5.40;99.90
12166;DHT22;6146;48.128;11.476;2024-01-06T04:45:19;5.40;99.90
12166;DHT22;6146;48.128;11.476;2024-01-06T04:47:45;5.30;99.90
12166;DHT22;6146;48.128;11.476;2024-01-06T04:50:10;5.30;99.90
12166;DHT22;6146;48.128;11.476;2024-01-06T04:52:36;5.30;99.90
12166;DHT22;6146;48.128;11.476;2024-01-06T04:55:02;5.20;99.90
12166;DHT22;6146;48.128;11.476;2024-01-06T04:57:27;5.20;99.90
12166;DHT22;6146;48.128;11.476;2024-01-06T04:59:53;5.20;99.90
12166;DHT22;6146;48.128;11.476;2024-01-06T05:02:18;5.20;99.90
12166;DHT22;6146;48.128;11.476;2024-01-06T05:04:44;5.10;99.90
12166;DHT22;6146;48.128;11.476;2024-01-06T05:07:10;5.10;99.90
12166;DHT22;6146;48.128;11.476;2024-01-06T05:09:35;5.10;99.90
12166;DHT22;6146;48.128;11.476;2024-01-06T05:12:01;5.10;99.90
12166;DHT22;6146;48.128;11.476;2024-01-06T05:14:26;5.10;99.90
12166;DHT22;6146;48.128;11.476;2024-01-06T05:16:52;5.00;99.90
12166;DHT22;6146;48.128;11.476;2024-01-06T05:19:17;5.00;99.90
12166;DHT22;6146;48.128;11.476;2024-01-06T05:21:47;5.00;99.90
12166;DHT22;6146;48.128;11.476;2024-01-06T05:24:12;5.00;99.90
12166;DHT22;6146;48.128;11.476;2024-01-06T05:26:38;5.00;99.90
12166;DHT22;6146;48.128;11.476;2024-01-06T05:29:03;5.00;99.90
12166;DHT22;6146;48.128;11.476;2024-01-06T05:31:29;5.00;99.90
12166;DHT22;6146;48.128;11.476;2024-01-06T05:33:54;4.90;99.90
12166;DHT22;6146;48.128;11.476;2024-01-06T05:36:20;4.90;99.90
12166;DHT22;6146;48.128;11.476;2024-01-06T05:38:45;4.90;99.90
12166;DHT22;6146;48.128;11.476;2024-01-06T05:41:11;4.90;99.90
12166;DHT22;6146;48.128;11.476;2024-01-06T05:43:37;4.80;99.90
12166;DHT22;6146;48.128;11.476;2024-01-06T05:46:02;4.80;99.90
12166;DHT22;6146;48.128;11.476;2024-01-06T05:48:28;4.80;99.90
12166;DHT22;6146;48.128;11.476;2024-01-06T05:50:53;4.80;99.90
12166;DHT22;6146;48.128;11.476;2024-01-06T05:53:19;4.70;99.90
12166;DHT22;6146;48.128;11.476;2024-01-06T05:55:45;4.70;99.90
12166;DHT22;6146;48.128;11.476;2024-01-06T05:58:10;4.70;99.90
12166;DHT22;6146;48.128;11.476;2024-01-06T06:00:36;4.70;99.90
12166;DHT22;6146;48.128;11.476;2024-01-06T06:03:01;4.70;99.90
12166;DHT22;6146;48.128;11.476;2024-01-06T06:05:27;4.60;99.90
12166;DHT22;6146;48.128;11.476;2024-01-06T06:07:52;4.60;99.90
12166;DHT22;6146;48.128;11.476;2024-01-06T06:10:18;4.60;99.90
12166;DHT22;6146;48.128;11.476;2024-01-06T06:12:44;4.60;99.90
12166;DHT22;6146;48.128;11.476;2024-01-06T06:15:10;4.60;99.90
12166;DHT22;6146;48.128;11.476;2024-01-06T06:17:36;4.60;99.90
12166;DHT22;6146;48.128;11.476;2024-01-06T06:20:02;4.50;99.90
12166;DHT22;6146;48.128;11.476;2024-01-06T06:22:28;4.50;99.90
12166;DHT22;6146;48.128;11.476;2024-01-06T06:25:05;4.50;99.90
12166;DHT22;6146;48.128;11.476;2024-01-06T06:27:30;4.50;99.90
12166;DHT22;6146;48.128;11.476;2024-01-06T06:29:56;4.50;99.90
12166;DHT22;6146;48.128;11.476;2024-01-06T06:32:21;4.60;99.90
12166;DHT22;6146;48.128;11.476;2024-01-06T06:34:47;4.60;99.90
12166;DHT22;6146;48.128;11.476;2024-01-06T06:37:12;4.60;99.90
12166;DHT22;6146;48.128;11.476;2024-01-06T06:39:38;4.60;99.90
12166;DHT22;6146;48.128;11.476;2024-01-06T06:42:04;4.70;99.90
12166;DHT22;6146;48.128;11.476;2024-01-06T06:44:30;4.60;99.90
12166;DHT22;6146;48.128;11.476;2024-01-06T06:46:56;4.60;99.90
12166;DHT22;6146;48.128;11.476;2024-01-06T06:49:21;4.60;99.90
12166;DHT22;6146;48.128;11.476;2024-01-06T06:51:47;4.60;99.90
12166;DHT22;6146;48.128;11.476;2024-01-06T06:54:14;4.60;99.90
12166;DHT22;6146;48.128;11.476;2024-01-06T06:56:43;4.70;99.90
12166;DHT22;6146;48.128;11.476;2024-01-06T06:59:09;4.70;99.90
12166;DHT22;6146;48.128;11.476;2024-01-06T07:01:35;4.60;99.90
12166;DHT22;6146;48.128;11.476;2024-01-06T07:04:01;4.70;99.90
12166;DHT22;6146;48.128;11.476;2024-01-06T07:06:27;4.70;99.90
12166;DHT22;6146;48.128;11.476;2024-01-06T07:08:54;4.70;99.90
12166;DHT22;6146;48.128;11.476;2024-01-06T07:11:20;4.60;99.90
12166;DHT22;6146;48.128;11.476;2024-01-06T07:13:45;4.60;99.90
12166;DHT22;6146;48.128;11.476;2024-01-06T07:16:11;4.60;99.90
12166;DHT22;6146;48.128;11.476;2024-01-06T07:18:37;4.60;99.90
12166;DHT22;6146;48.128;11.476;2024-01-06T07:21:05;4.60;99.90
12166;DHT22;6146;48.128;11.476;2024-01-06T07:23:32;4.60;99.90
12166;DHT22;6146;48.128;11.476;2024-01-06T07:25:57;4.60;99.90
12166;DHT22;6146;48.128;11.476;2024-01-06T07:28:23;4.60;99.90
12166;DHT22;6146;48.128;11.476;2024-01-06T07:30:48;4.60;99.90
12166;DHT22;6146;48.128;11.476;2024-01-06T07:33:14;4.60;99.90
12166;DHT22;6146;48.128;11.476;2024-01-06T07:35:40;4.60;99.90
12166;DHT22;6146;48.128;11.476;2024-01-06T07:38:11;4.60;99.90
12166;DHT22;6146;48.128;11.476;2024-01-06T07:40:37;4.60;99.90
12166;DHT22;6146;48.128;11.476;2024-01-06T07:43:03;4.60;99.90
12166;DHT22;6146;48.128;11.476;2024-01-06T07:45:30;4.60;99.90
12166;DHT22;6146;48.128;11.476;2024-01-06T07:47:55;4.60;99.90
12166;DHT22;6146;48.128;11.476;2024-01-06T07:50:21;4.60;99.90
12166;DHT22;6146;48.128;11.476;2024-01-06T07:52:46;4.60;99.90
12166;DHT22;6146;48.128;11.476;2024-01-06T07:55:12;4.50;99.90
12166;DHT22;6146;48.128;11.476;2024-01-06T07:57:37;4.50;99.90
12166;DHT22;6146;48.128;11.476;2024-01-06T08:00:03;4.50;99.90
12166;DHT22;6146;48.128;11.476;2024-01-06T08:02:29;4.50;99.90
12166;DHT22;6146;48.128;11.476;2024-01-06T08:04:54;4.40;99.90
12166;DHT22;6146;48.128;11.476;2024-01-06T08:07:21;4.40;99.90
12166;DHT22;6146;48.128;11.476;2024-01-06T08:09:47;4.40;99.90
12166;DHT22;6146;48.128;11.476;2024-01-06T08:12:12;4.50;99.90
12166;DHT22;6146;48.128;11.476;2024-01-06T08:14:38;4.50;99.90
12166;DHT22;6146;48.128;11.476;2024-01-06T08:17:04;4.50;99.90
12166;DHT22;6146;48.128;11.476;2024-01-06T08:19:29;4.50;99.90
12166;DHT22;6146;48.128;11.476;2024-01-06T08:21:57;4.50;99.90
12166;DHT22;6146;48.128;11.476;2024-01-06T08:24:23;4.50;99.90
12166;DHT22;6146;48.128;11.476;2024-01-06T08:26:48;4.60;99.90
12166;DHT22;6146;48.128;11.476;2024-01-06T08:29:14;4.50;99.90
12166;DHT22;6146;48.128;11.476;2024-01-06T08:31:41;4.60;99.90
12166;DHT22;6146;48.128;11.476;2024-01-06T08:34:07;4.70;99.90
12166;DHT22;6146;48.128;11.476;2024-01-06T08:36:33;4.70;99.90
12166;DHT22;6146;48.128;11.476;2024-01-06T08:38:59;4.80;99.90
12166;DHT22;6146;48.128;11.476;2024-01-06T08:41:25;4.80;99.90
12166;DHT22;6146;48.128;11.476;2024-01-06T08:43:50;4.90;99.90
12166;DHT22;6146;48.128;11.476;2024-01-06T08:46:16;4.90;99.90
12166;DHT22;6146;48.128;11.476;2024-01-06T08:48:42;4.90;99.90
12166;DHT22;6146;48.128;11.476;2024-01-06T08:51:08;4.90;99.90
12166;DHT22;6146;48.128;11.476;2024-01-06T08:53:33;4.80;99.90
12166;DHT22;6146;48.128;11.476;2024-01-06T08:55:59;4.80;99.90
12166;DHT22;6146;48.128;11.476;2024-01-06T08:58:24;4.80;99.90
12166;DHT22;6146;48.128;11.476;2024-01-06T09:00:51;4.90;99.90
12166;DHT22;6146;48.128;11.476;2024-01-06T09:03:18;4.90;99.90
12166;DHT22;6146;48.128;11.476;2024-01-06T09:05:51;4.90;99.90
12166;DHT22;6146;48.128;11.476;2024-01-06T09:08:16;4.90;99.90
12166;DHT22;6146;48.128;11.476;2024-01-06T09:10:42;4.90;99.90
12166;DHT22;6146;48.128;11.476;2024-01-06T09:13:08;4.90;99.90
12166;DHT22;6146;48.128;11.476;2024-01-06T09:15:34;4.90;99.90
12166;DHT22;6146;48.128;11.476;2024-01-06T09:17:59;4.90;99.90
12166;DHT22;6146;48.128;11.476;2024-01-06T09:20:25;5.00;99.90
12166;DHT22;6146;48.128;11.476;2024-01-06T09:22:52;5.10;99.90
12166;DHT22;6146;48.128;11.476;2024-01-06T09:25:18;5.10;99.90
12166;DHT22;6146;48.128;11.476;2024-01-06T09:27:43;5.20;99.90
12166;DHT22;6146;48.128;11.476;2024-01-06T09:30:09;5.20;99.90
12166;DHT22;6146;48.128;11.476;2024-01-06T09:32:35;5.20;99.90
12166;DHT22;6146;48.128;11.476;2024-01-06T09:35:01;5.20;99.90
12166;DHT22;6146;48.128;11.476;2024-01-06T09:37:26;5.30;99.90
12166;DHT22;6146;48.128;11.476;2024-01-06T09:39:52;5.20;99.90
12166;DHT22;6146;48.128;11.476;2024-01-06T09:42:17;5.20;99.90
12166;DHT22;6146;48.128;11.476;2024-01-06T09:44:43;5.20;99.90
12166;DHT22;6146;48.128;11.476;2024-01-06T09:47:11;5.20;99.90
12166;DHT22;6146;48.128;11.476;2024-01-06T09:49:38;5.20;99.90
12166;DHT22;6146;48.128;11.476;2024-01-06T09:52:13;5.20;99.90
12166;DHT22;6146;48.128;11.476;2024-01-06T09:54:46;5.20;99.90
12166;DHT22;6146;48.128;11.476;2024-01-06T09:57:14;5.20;99.90
12166;DHT22;6146;48.128;11.476;2024-01-06T09:59:40;5.20;99.90
12166;DHT22;6146;48.128;11.476;2024-01-06T10:02:08;5.20;99.90
12166;DHT22;6146;48.128;11.476;2024-01-06T10:04:33;5.20;99.90
12166;DHT22;6146;48.128;11.476;2024-01-06T10:06:59;5.10;99.90
12166;DHT22;6146;48.128;11.476;2024-01-06T10:09:28;5.00;99.90
12166;DHT22;6146;48.128;11.476;2024-01-06T10:11:56;5.00;99.90
12166;DHT22;6146;48.128;11.476;2024-01-06T10:14:24;5.00;99.90
12166;DHT22;6146;48.128;11.476;2024-01-06T10:16:51;4.80;99.90
12166;DHT22;6146;48.128;11.476;2024-01-06T10:19:16;4.80;99.90
12166;DHT22;6146;48.128;11.476;2024-01-06T10:21:42;4.80;99.90
12166;DHT22;6146;48.128;11.476;2024-01-06T10:24:08;4.90;99.90
12166;DHT22;6146;48.128;11.476;2024-01-06T10:26:35;5.10;99.90
12166;DHT22;6146;48.128;11.476;2024-01-06T10:29:00;5.20;99.90
12166;DHT22;6146;48.128;11.476;2024-01-06T10:31:26;5.20;99.90
12166;DHT22;6146;48.128;11.476;2024-01-06T10:33:52;5.20;99.90
12166;DHT22;6146;48.128;11.476;2024-01-06T10:36:18;5.30;99.90
12166;DHT22;6146;48.128;11.476;2024-01-06T10:38:46;5.30;99.90
12166;DHT22;6146;48.128;11.476;2024-01-06T10:41:12;5.30;99.90
12166;DHT22;6146;48.128;11.476;2024-01-06T10:43:38;5.30;99.90
12166;DHT22;6146;48.128;11.476;2024-01-06T10:46:06;5.40;99.90
12166;DHT22;6146;48.128;11.476;2024-01-06T10:48:36;5.30;99.90
12166;DHT22;6146;48.128;11.476;2024-01-06T10:51:04;5.20;99.90
12166;DHT22;6146;48.128;11.476;2024-01-06T10:53:33;5.30;99.90
12166;DHT22;6146;48.128;11.476;2024-01-06T10:56:03;5.30;99.90
12166;DHT22;6146;48.128;11.476;2024-01-06T10:58:30;5.40;99.90
12166;DHT22;6146;48.128;11.476;2024-01-06T11:00:57;5.40;99.90
12166;DHT22;6146;48.128;11.476;2024-01-06T11:03:24;5.40;99.90
12166;DHT22;6146;48.128;11.476;2024-01-06T11:05:50;5.50;99.90
12166;DHT22;6146;48.128;11.476;2024-01-06T11:08:17;5.50;99.90
12166;DHT22;6146;48.128;11.476;2024-01-06T11:10:43;5.60;99.90
12166;DHT22;6146;48.128;11.476;2024-01-06T11:13:14;5.60;99.90
12166;DHT22;6146;48.128;11.476;2024-01-06T11:15:45;5.60;99.90
12166;DHT22;6146;48.128;11.476;2024-01-06T11:18:31;5.60;99.90
12166;DHT22;6146;48.128;11.476;2024-01-06T11:21:18;5.50;99.90
12166;DHT22;6146;48.128;11.476;2024-01-06T11:26:32;5.50;99.90
12166;DHT22;6146;48.128;11.476;2024-01-06T11:29:00;5.50;99.90
12166;DHT22;6146;48.128;11.476;2024-01-06T11:31:31;5.50;99.90
12166;DHT22;6146;48.128;11.476;2024-01-06T11:33:56;5.50;99.90
12166;DHT22;6146;48.128;11.476;2024-01-06T11:36:22;5.50;99.90
12166;DHT22;6146;48.128;11.476;2024-01-06T11:38:48;5.30;99.90
12166;DHT22;6146;48.128;11.476;2024-01-06T11:41:53;5.30;99.90
12166;DHT22;6146;48.128;11.476;2024-01-06T11:44:21;5.30;99.90
12166;DHT22;6146;48.128;11.476;2024-01-06T11:46:47;5.30;99.90
12166;DHT22;6146;48.128;11.476;2024-01-06T11:49:15;5.30;99.90
12166;DHT22;6146;48.128;11.476;2024-01-06T11:51:41;5.30;99.90
12166;DHT22;6146;48.128;11.476;2024-01-06T11:54:08;5.30;99.90
12166;DHT22;6146;48.128;11.476;2024-01-06T11:56:34;5.40;99.90
12166;DHT22;6146;48.128;11.476;2024-01-06T11:59:00;5.40;99.90
12166;DHT22;6146;48.128;11.476;2024-01-06T12:01:26;5.40;99.90
12166;DHT22;6146;48.128;11.476;2024-01-06T12:03:54;5.40;99.90
12166;DHT22;6146;48.128;11.476;2024-01-06T12:06:21;5.40;99.90
12166;DHT22;6146;48.128;11.476;2024-01-06T12:08:49;5.50;99.90
12166;DHT22;6146;48.128;11.476;2024-01-06T12:11:17;5.50;99.90
12166;DHT22;6146;48.128;11.476;2024-01-06T12:13:44;5.40;99.90
12166;DHT22;6146;48.128;11.476;2024-01-06T12:16:10;5.50;99.90
12166;DHT22;6146;48.128;11.476;2024-01-06T12:18:35;5.40;99.90
12166;DHT22;6146;48.128;11.476;2024-01-06T12:21:01;5.50;99.90
12166;DHT22;6146;48.128;11.476;2024-01-06T12:23:27;5.40;99.90
12166;DHT22;6146;48.128;11.476;2024-01-06T12:25:55;5.40;99.90
12166;DHT22;6146;48.128;11.476;2024-01-06T12:28:21;5.40;99.90
12166;DHT22;6146;48.128;11.476;2024-01-06T12:30:46;5.50;99.90
12166;DHT22;6146;48.128;11.476;2024-01-06T12:33:12;5.50;99.90
12166;DHT22;6146;48.128;11.476;2024-01-06T12:35:39;5.40;99.90
12166;DHT22;6146;48.128;11.476;2024-01-06T12:38:05;5.30;99.90
12166;DHT22;6146;48.128;11.476;2024-01-06T12:40:31;5.30;99.90
12166;DHT22;6146;48.128;11.476;2024-01-06T12:42:57;5.20;99.90
12166;DHT22;6146;48.128;11.476;2024-01-06T12:45:22;5.10;99.90
12166;DHT22;6146;48.128;11.476;2024-01-06T12:47:48;5.20;99.90
12166;DHT22;6146;48.128;11.476;2024-01-06T12:50:13;5.10;99.90
12166;DHT22;6146;48.128;11.476;2024-01-06T12:52:40;5.30;99.90
12166;DHT22;6146;48.128;11.476;2024-01-06T12:55:06;5.00;99.90
12166;DHT22;6146;48.128;11.476;2024-01-06T12:57:32;5.00;99.90
12166;DHT22;6146;48.128;11.476;2024-01-06T12:59:59;4.90;99.90
12166;DHT22;6146;48.128;11.476;2024-01-06T13:02:24;4.90;99.90
12166;DHT22;6146;48.128;11.476;2024-01-06T13:04:50;4.90;99.90
12166;DHT22;6146;48.128;11.476;2024-01-06T13:07:15;4.80;99.90
12166;DHT22;6146;48.128;11.476;2024-01-06T13:09:41;4.80;99.90
12166;DHT22;6146;48.128;11.476;2024-01-06T13:12:07;4.70;99.90
12166;DHT22;6146;48.128;11.476;2024-01-06T13:14:33;4.70;99.90
12166;DHT22;6146;48.128;11.476;2024-01-06T13:16:58;4.80;99.90
12166;DHT22;6146;48.128;11.476;2024-01-06T13:19:25;4.70;99.90
12166;DHT22;6146;48.128;11.476;2024-01-06T13:21:50;4.80;99.90
12166;DHT22;6146;48.128;11.476;2024-01-06T13:24:16;4.70;99.90
12166;DHT22;6146;48.128;11.476;2024-01-06T13:26:42;4.80;99.90
12166;DHT22;6146;48.128;11.476;2024-01-06T13:29:07;4.70;99.90
12166;DHT22;6146;48.128;11.476;2024-01-06T13:31:33;4.70;99.90
12166;DHT22;6146;48.128;11.476;2024-01-06T13:33:58;4.70;99.90
12166;DHT22;6146;48.128;11.476;2024-01-06T13:36:24;4.70;99.90
12166;DHT22;6146;48.128;11.476;2024-01-06T13:38:50;4.70;99.90
12166;DHT22;6146;48.128;11.476;2024-01-06T13:41:15;4.70;99.90
12166;DHT22;6146;48.128;11.476;2024-01-06T13:43:41;4.70;99.90
12166;DHT22;6146;48.128;11.476;2024-01-06T13:46:07;4.70;99.90
12166;DHT22;6146;48.128;11.476;2024-01-06T13:48:32;4.70;99.90
12166;DHT22;6146;48.128;11.476;2024-01-06T13:50:58;4.60;99.90
12166;DHT22;6146;48.128;11.476;2024-01-06T13:53:24;4.60;99.90
12166;DHT22;6146;48.128;11.476;2024-01-06T13:55:50;4.50;99.90
12166;DHT22;6146;48.128;11.476;2024-01-06T13:58:16;4.50;99.90
12166;DHT22;6146;48.128;11.476;2024-01-06T14:00:43;4.50;99.90
12166;DHT22;6146;48.128;11.476;2024-01-06T14:03:09;4.50;99.90
12166;DHT22;6146;48.128;11.476;2024-01-06T14:05:35;4.50;99.90
12166;DHT22;6146;48.128;11.476;2024-01-06T14:08:01;4.50;99.90
12166;DHT22;6146;48.128;11.476;2024-01-06T14:10:27;4.50;99.90
12166;DHT22;6146;48.128;11.476;2024-01-06T14:12:53;4.50;99.90
12166;DHT22;6146;48.128;11.476;2024-01-06T14:15:20;4.50;99.90
12166;DHT22;6146;48.128;11.476;2024-01-06T14:17:45;4.40;99.90
12166;DHT22;6146;48.128;11.476;2024-01-06T14:20:15;4.40;99.90
12166;DHT22;6146;48.128;11.476;2024-01-06T14:22:43;4.40;99.90
12166;DHT22;6146;48.128;11.476;2024-01-06T14:25:09;4.40;99.90
12166;DHT22;6146;48.128;11.476;2024-01-06T14:27:35;4.40;99.90
12166;DHT22;6146;48.128;11.476;2024-01-06T14:30:00;4.40;99.90
12166;DHT22;6146;48.128;11.476;2024-01-06T14:32:26;4.30;99.90
12166;DHT22;6146;48.128;11.476;2024-01-06T14:34:52;4.30;99.90
12166;DHT22;6146;48.128;11.476;2024-01-06T14:37:17;4.30;99.90
12166;DHT22;6146;48.128;11.476;2024-01-06T14:39:43;4.20;99.90
12166;DHT22;6146;48.128;11.476;2024-01-06T14:42:09;4.30;99.90
12166;DHT22;6146;48.128;11.476;2024-01-06T14:44:35;4.20;99.90
12166;DHT22;6146;48.128;11.476;2024-01-06T14:47:01;4.20;99.90
12166;DHT22;6146;48.128;11.476;2024-01-06T14:49:26;4.10;99.90
12166;DHT22;6146;48.128;11.476;2024-01-06T14:51:52;4.00;99.90
12166;DHT22;6146;48.128;11.476;2024-01-06T14:54:17;4.00;99.90
12166;DHT22;6146;48.128;11.476;2024-01-06T14:56:43;3.90;99.90
12166;DHT22;6146;48.128;11.476;2024-01-06T14:59:08;3.90;99.90
12166;DHT22;6146;48.128;11.476;2024-01-06T15:01:34;3.80;99.90
12166;DHT22;6146;48.128;11.476;2024-01-06T15:04:00;3.80;99.90
12166;DHT22;6146;48.128;11.476;2024-01-06T15:06:25;3.70;99.90
12166;DHT22;6146;48.128;11.476;2024-01-06T15:08:51;3.70;99.90
12166;DHT22;6146;48.128;11.476;2024-01-06T15:11:16;3.60;99.90
12166;DHT22;6146;48.128;11.476;2024-01-06T15:13:42;3.60;99.90
12166;DHT22;6146;48.128;11.476;2024-01-06T15:16:08;3.50;99.90
12166;DHT22;6146;48.128;11.476;2024-01-06T15:18:33;3.50;99.90
12166;DHT22;6146;48.128;11.476;2024-01-06T15:21:00;3.40;99.90
12166;DHT22;6146;48.128;11.476;2024-01-06T15:23:26;3.40;99.90
12166;DHT22;6146;48.128;11.476;2024-01-06T15:25:51;3.40;99.90
12166;DHT22;6146;48.128;11.476;2024-01-06T15:28:17;3.40;99.90
12166;DHT22;6146;48.128;11.476;2024-01-06T15:30:42;3.30;99.90
12166;DHT22;6146;48.128;11.476;2024-01-06T15:33:08;3.30;99.90
12166;DHT22;6146;48.128;11.476;2024-01-06T15:35:34;3.30;99.90
12166;DHT22;6146;48.128;11.476;2024-01-06T15:37:59;3.30;99.90
12166;DHT22;6146;48.128;11.476;2024-01-06T15:40:25;3.30;99.90